Time;durP1;ratioP1;P1;durP2;ratioP2;P2;SDS_P1;SDS_P2;PMS_P1;PMS_P2;Temp;Humidity;BMP_temperature;BMP_pressure;BME280_temperature;BME280_humidity;BME280_pressure;Samples;Min_cycle;Max_cycle;Signal;HPM_P1;HPM_P2
2021/12/09 00:00:59;;;;;;;10.48;5.50;;;;;;;5.04;67.52;95899.59;4965166;28;20702;-78
2021/12/09 00:03:24;;;;;;;9.40;5.57;;;;;;;5.01;68.09;95907.81;4969421;28;20168;-78
2021/12/09 00:05:49;;;;;;;14.23;6.47;;;;;;;4.96;67.72;95909.56;4949668;28;20742;-78
2021/12/09 00:08:15;;;;;;;8.95;5.05;;;;;;;4.90;68.13;95915.66;4975021;28;20673;-78
2021/12/09 00:10:41;;;;;;;12.13;6.28;;;;;;;4.85;67.77;95917.19;5004249;28;20181;-78
2021/12/09 00:13:07;;;;;;;10.90;6.28;;;;;;;4.86;68.06;95928.25;4986578;28;20235;-78
2021/12/09 00:15:34;;;;;;;11.38;5.63;;;;;;;4.78;68.63;95918.34;4969291;28;20355;-78
2021/12/09 00:17:59;;;;;;;12.68;6.30;;;;;;;4.81;68.69;95921.22;4969687;28;20669;-78
2021/12/09 00:20:24;;;;;;;14.65;6.80;;;;;;;4.80;68.75;95924.84;4967835;28;20366;-78
2021/12/09 00:22:50;;;;;;;11.32;6.93;;;;;;;4.80;68.65;95929.22;4985296;28;20289;-78
2021/12/09 00:25:15;;;;;;;11.15;5.90;;;;;;;4.78;68.29;95936.41;4969456;28;20543;-78
2021/12/09 00:27:42;;;;;;;14.32;7.20;;;;;;;4.75;68.59;95942.06;4968746;28;20237;-78
2021/12/09 00:30:09;;;;;;;11.32;5.38;;;;;;;4.73;68.32;95944.06;4955170;28;20685;-78
2021/12/09 00:32:34;;;;;;;12.85;5.65;;;;;;;4.72;68.27;95939.94;4989240;28;20702;-78
2021/12/09 00:35:02;;;;;;;11.18;5.72;;;;;;;4.73;68.23;95944.06;4971145;28;20247;-78
2021/12/09 00:37:35;;;;;;;13.07;5.70;;;;;;;4.67;68.38;95941.41;4986657;28;20275;-78
2021/12/09 00:40:00;;;;;;;12.00;6.05;;;;;;;4.65;68.75;95943.47;4987785;28;20285;-78
2021/12/09 00:42:26;;;;;;;14.52;6.13;;;;;;;4.70;68.42;95950.50;4985288;28;20687;-78
2021/12/09 00:44:53;;;;;;;10.55;4.95;;;;;;;4.67;69.03;95946.56;4972303;28;20195;-78
2021/12/09 00:47:19;;;;;;;10.27;5.30;;;;;;;4.74;68.66;95945.63;4973698;28;20236;-78
2021/12/09 00:49:46;;;;;;;10.23;4.97;;;;;;;4.83;68.23;95944.19;4953744;28;20199;-78
2021/12/09 00:52:11;;;;;;;11.27;5.40;;;;;;;4.90;68.26;95952.56;4969650;28;20230;-78
2021/12/09 00:54:38;;;;;;;11.60;5.93;;;;;;;4.86;68.02;95959.22;4970803;28;20535;-78
2021/12/09 00:57:04;;;;;;;8.48;5.32;;;;;;;4.79;68.08;95951.63;5007076;28;20642;-78
2021/12/09 00:59:29;;;;;;;11.57;5.28;;;;;;;4.81;68.08;95953.97;4988818;28;20271;-78
2021/12/09 01:01:55;;;;;;;10.15;4.80;;;;;;;4.69;67.80;95956.66;4964051;28;20179;-78
2021/12/09 01:04:21;;;;;;;10.77;5.38;;;;;;;4.61;68.28;95963.00;4995011;28;20800;-78
2021/12/09 01:06:48;;;;;;;9.70;5.25;;;;;;;4.59;68.10;95964.25;4988100;28;20722;-78
2021/12/09 01:09:14;;;;;;;10.60;5.40;;;;;;;4.65;68.39;95971.81;4984314;28;20190;-78
2021/12/09 01:11:39;;;;;;;8.70;5.25;;;;;;;4.71;69.20;95966.72;4958374;28;20237;-78
2021/12/09 01:14:04;;;;;;;9.18;4.97;;;;;;;4.75;69.05;95973.00;4973773;28;20210;-78
2021/12/09 01:16:30;;;;;;;10.32;5.45;;;;;;;4.79;69.08;95972.28;4981752;28;20168;-78
2021/12/09 01:18:56;;;;;;;12.93;5.63;;;;;;;4.87;68.88;95977.03;4988733;28;20202;-78
2021/12/09 01:21:22;;;;;;;11.88;6.55;;;;;;;4.97;68.58;95976.41;4956477;28;20270;-78
2021/12/09 01:23:47;;;;;;;11.27;5.53;;;;;;;4.99;68.84;95982.09;4996508;28;20280;-78
2021/12/09 01:26:13;;;;;;;9.60;5.45;;;;;;;5.13;68.71;95981.75;5028403;28;20460;-78
2021/12/09 01:28:46;;;;;;;14.77;5.90;;;;;;;5.27;68.80;95979.59;4991953;28;20237;-78
2021/12/09 01:31:19;;;;;;;12.38;5.97;;;;;;;5.33;68.22;95968.31;5000444;28;20151;-78
2021/12/09 01:33:44;;;;;;;11.43;6.20;;;;;;;5.33;68.52;95968.31;5020866;28;20710;-78
2021/12/09 01:36:09;;;;;;;11.65;5.90;;;;;;;5.22;68.13;95965.59;5027928;28;20077;-78
2021/12/09 01:38:35;;;;;;;12.35;5.78;;;;;;;5.28;68.61;95976.78;5009752;28;20623;-78
2021/12/09 01:41:00;;;;;;;12.55;6.07;;;;;;;5.28;68.27;95975.97;4989312;28;20248;-78
2021/12/09 01:43:26;;;;;;;11.93;6.80;;;;;;;5.24;68.49;95973.09;4990339;28;20188;-78
2021/12/09 01:46:02;;;;;;;11.15;5.60;;;;;;;5.07;68.55;95975.72;4961173;28;20704;-78
2021/12/09 01:48:28;;;;;;;14.35;6.25;;;;;;;5.14;68.20;95968.63;4991540;28;20205;-78
2021/12/09 01:50:53;;;;;;;13.23;7.05;;;;;;;5.08;67.98;95974.72;4985113;28;20284;-78
2021/12/09 01:53:18;;;;;;;11.75;6.07;;;;;;;5.06;68.12;95972.38;4969000;28;20281;-78
2021/12/09 01:55:44;;;;;;;13.48;6.20;;;;;;;5.04;68.51;95974.41;4984063;28;20184;-78
2021/12/09 01:58:10;;;;;;;10.77;5.70;;;;;;;5.08;68.65;95966.97;4988526;28;20212;-78
2021/12/09 02:00:38;;;;;;;14.77;7.25;;;;;;;5.12;68.12;95968.06;5005644;28;20266;-78
2021/12/09 02:03:04;;;;;;;10.65;5.95;;;;;;;5.20;67.41;95959.91;5005106;28;20192;-79
2021/12/09 02:05:29;;;;;;;9.98;5.47;;;;;;;5.22;67.37;95962.25;4982656;28;20569;-78
2021/12/09 02:07:55;;;;;;;9.00;4.97;;;;;;;5.16;66.95;95963.22;4970282;28;20171;-78
2021/12/09 02:10:21;;;;;;;11.60;5.65;;;;;;;4.98;67.40;95962.47;4987074;28;20321;-78
2021/12/09 02:12:48;;;;;;;12.98;5.28;;;;;;;4.90;67.08;95962.09;4990470;28;20332;-78
2021/12/09 02:15:14;;;;;;;8.45;4.93;;;;;;;4.82;67.53;95965.88;4988135;28;20196;-78
2021/12/09 02:17:39;;;;;;;11.50;5.75;;;;;;;4.79;68.22;95964.53;4986599;28;20248;-78
2021/12/09 02:20:07;;;;;;;10.70;5.72;;;;;;;4.66;67.72;95965.66;4985475;28;20264;-78
2021/12/09 02:22:33;;;;;;;11.57;5.82;;;;;;;4.60;67.95;95963.25;4985239;28;20198;-78
2021/12/09 02:24:59;;;;;;;11.50;5.72;;;;;;;4.50;67.50;95956.91;4986885;28;20159;-78
2021/12/09 02:27:25;;;;;;;9.43;4.97;;;;;;;4.49;68.36;95957.94;4987978;28;20283;-78
2021/12/09 02:29:52;;;;;;;14.85;5.18;;;;;;;4.45;67.50;95961.97;5005020;28;20235;-78
2021/12/09 02:32:18;;;;;;;10.60;5.32;;;;;;;4.43;67.85;95966.59;4985458;28;20705;-78
2021/12/09 02:34:43;;;;;;;8.38;4.28;;;;;;;4.38;67.82;95963.16;4998586;28;20355;-79
2021/12/09 02:37:11;;;;;;;7.45;4.50;;;;;;;4.42;67.86;95961.66;5003758;28;20231;-78
2021/12/09 02:39:37;;;;;;;15.18;6.00;;;;;;;4.41;67.87;95966.06;4989589;28;20318;-78
2021/12/09 02:42:03;;;;;;;18.70;6.55;;;;;;;4.43;68.59;95969.16;5004777;28;20314;-78
2021/12/09 02:44:29;;;;;;;12.15;6.03;;;;;;;4.47;68.62;95972.06;4985202;28;20182;-78
2021/12/09 02:46:56;;;;;;;11.10;5.35;;;;;;;4.49;68.44;95972.63;5009099;28;20216;-78
2021/12/09 02:49:24;;;;;;;9.45;5.95;;;;;;;4.47;68.20;95972.06;5004586;28;20638;-78
2021/12/09 02:51:51;;;;;;;10.55;5.95;;;;;;;4.47;67.91;95972.06;5005187;28;20178;-78
2021/12/09 02:54:18;;;;;;;11.63;5.90;;;;;;;4.59;68.40;95975.34;5003609;28;20195;-78
2021/12/09 02:56:46;;;;;;;11.30;6.07;;;;;;;4.67;67.93;95977.50;5004930;28;20210;-78
2021/12/09 02:59:11;;;;;;;34.45;8.13;;;;;;;4.77;68.26;95978.69;4989276;28;20378;-78
2021/12/09 03:01:45;;;;;;;11.93;6.22;;;;;;;4.78;67.73;95982.81;4989261;28;20297;-78
2021/12/09 03:04:11;;;;;;;24.85;6.90;;;;;;;4.79;67.37;95979.22;5005373;28;20232;-78
2021/12/09 03:06:42;;;;;;;25.83;6.13;;;;;;;4.65;67.49;95978.78;4989007;28;20593;-78
2021/12/09 03:09:27;;;;;;;13.07;6.03;;;;;;;4.60;68.69;95982.06;4972946;28;20158;-78
2021/12/09 03:11:55;;;;;;;16.10;6.07;;;;;;;4.78;68.55;95983.63;5004017;28;20600;-78
2021/12/09 03:14:22;;;;;;;16.73;6.93;;;;;;;4.73;67.84;95986.13;5004381;28;20188;-78
2021/12/09 03:16:48;;;;;;;15.20;6.18;;;;;;;4.75;68.96;95985.88;4987519;28;20161;-78
2021/12/09 03:19:13;;;;;;;11.55;6.47;;;;;;;4.78;68.96;95995.72;4984039;28;20121;-78
2021/12/09 03:21:41;;;;;;;15.32;7.07;;;;;;;4.70;68.02;95991.75;4984261;28;20213;-78
2021/12/09 03:24:09;;;;;;;12.82;6.72;;;;;;;4.82;69.03;95997.59;4991579;28;20287;-78
2021/12/09 03:26:42;;;;;;;17.98;8.10;;;;;;;4.81;69.02;96006.34;4985352;28;20202;-78
2021/12/09 03:29:10;;;;;;;18.13;7.82;;;;;;;4.92;69.21;96012.44;4999980;28;20374;-78
2021/12/09 03:31:37;;;;;;;14.10;6.95;;;;;;;5.01;68.75;96011.00;4976347;28;20258;-78
2021/12/09 03:34:03;;;;;;;17.05;7.60;;;;;;;4.97;69.04;96012.50;4951926;28;20272;-78
2021/12/09 03:36:28;;;;;;;17.65;7.93;;;;;;;5.02;68.66;96011.78;4974380;28;20162;-78
2021/12/09 03:39:09;;;;;;;13.07;7.35;;;;;;;4.90;68.86;96024.78;5001946;28;20205;-78
2021/12/09 03:41:35;;;;;;;17.48;8.00;;;;;;;5.13;68.17;96025.63;4987662;28;20718;-78
2021/12/09 03:44:00;;;;;;;18.15;8.90;;;;;;;5.13;68.12;96035.94;5001446;28;20246;-78
2021/12/09 03:46:26;;;;;;;20.75;7.30;;;;;;;5.16;68.04;96035.47;4986380;28;20197;-77
2021/12/09 03:48:51;;;;;;;16.83;7.47;;;;;;;5.20;68.79;96049.44;5004012;28;20227;-78
2021/12/09 03:51:17;;;;;;;18.10;7.97;;;;;;;5.22;69.28;96049.97;4987000;28;20286;-78
2021/12/09 03:53:42;;;;;;;21.77;7.60;;;;;;;5.19;68.30;96050.44;5003522;28;20201;-78
2021/12/09 03:56:08;;;;;;;16.48;8.18;;;;;;;5.18;68.62;96051.50;5003890;28;20273;-78
2021/12/09 03:58:33;;;;;;;16.70;8.10;;;;;;;5.16;68.78;96059.47;5003709;28;20260;-78
2021/12/09 04:00:58;;;;;;;19.85;9.05;;;;;;;5.16;68.56;96061.28;4982580;28;20679;-78
2021/12/09 04:03:24;;;;;;;17.73;8.07;;;;;;;5.20;68.78;96070.88;4987667;28;20714;-78
2021/12/09 04:05:50;;;;;;;17.02;8.02;;;;;;;5.26;68.54;96061.41;5008937;28;20270;-78
2021/12/09 04:08:17;;;;;;;17.63;8.68;;;;;;;5.28;68.99;96068.88;4990850;28;20654;-78
2021/12/09 04:10:43;;;;;;;20.23;9.68;;;;;;;5.34;68.62;96067.94;4990310;28;20697;-78
2021/12/09 04:13:09;;;;;;;17.23;7.80;;;;;;;5.31;68.70;96066.63;5005421;28;20196;-78
2021/12/09 04:15:34;;;;;;;20.13;9.50;;;;;;;5.32;68.45;96064.84;4989967;28;20284;-77
2021/12/09 04:18:00;;;;;;;18.90;8.60;;;;;;;5.34;68.61;96073.88;5006732;28;20244;-78
2021/12/09 04:20:26;;;;;;;19.48;8.25;;;;;;;5.34;68.59;96063.56;5009141;28;20204;-78
2021/12/09 04:22:52;;;;;;;17.85;8.52;;;;;;;5.37;68.79;96068.25;4973982;28;20105;-78
2021/12/09 04:25:19;;;;;;;19.20;8.35;;;;;;;5.40;68.20;96070.38;5007195;28;20103;-78
2021/12/09 04:27:46;;;;;;;14.73;8.25;;;;;;;5.42;67.64;96075.28;5023658;28;20742;-78
2021/12/09 04:30:13;;;;;;;18.52;8.73;;;;;;;5.40;67.93;96070.38;5006642;28;20288;-78
2021/12/09 04:32:38;;;;;;;16.65;8.90;;;;;;;5.41;68.40;96077.06;4986038;28;20193;-77
2021/12/09 04:35:05;;;;;;;17.33;8.60;;;;;;;5.44;67.92;96079.19;4994166;28;20200;-78
2021/12/09 04:37:30;;;;;;;20.95;9.27;;;;;;;5.48;68.81;96081.28;4980219;28;20200;-78
2021/12/09 04:39:55;;;;;;;18.45;9.35;;;;;;;5.42;68.36;96085.63;4953698;28;20652;-78
2021/12/09 04:42:21;;;;;;;16.75;8.98;;;;;;;5.41;68.58;96084.81;4970051;28;20276;-78
2021/12/09 04:44:46;;;;;;;17.33;7.88;;;;;;;5.46;68.75;96084.13;4969340;28;20186;-78
2021/12/09 04:47:12;;;;;;;18.08;7.78;;;;;;;5.47;68.45;96077.94;5002734;28;20208;-78
2021/12/09 04:49:37;;;;;;;18.17;9.10;;;;;;;5.52;68.11;96074.63;4965126;28;20225;-78
2021/12/09 04:52:04;;;;;;;21.55;8.25;;;;;;;5.51;68.17;96067.91;4986551;28;20288;-78
2021/12/09 04:54:29;;;;;;;22.48;10.07;;;;;;;5.53;68.40;96071.03;4976317;28;20244;-77
2021/12/09 04:56:55;;;;;;;20.33;9.63;;;;;;;5.56;68.18;96073.16;4989931;28;20662;-78
2021/12/09 04:59:20;;;;;;;20.27;9.90;;;;;;;5.55;68.15;96064.63;5006024;28;20773;-78
2021/12/09 05:01:49;;;;;;;27.02;9.98;;;;;;;5.55;67.34;96064.63;5008151;28;20096;-78
2021/12/09 05:04:16;;;;;;;19.30;9.48;;;;;;;5.54;68.37;96072.59;4989494;28;20266;-78
2021/12/09 05:06:41;;;;;;;21.23;8.77;;;;;;;5.57;68.59;96072.09;5023055;28;20216;-78
2021/12/09 05:09:11;;;;;;;24.85;9.93;;;;;;;5.56;68.25;96070.56;5005616;28;20185;-77
2021/12/09 05:14:04;;;;;;;17.17;7.90;;;;;;;5.48;68.33;96073.56;5006572;28;20173;-77
2021/12/09 05:16:30;;;;;;;18.42;8.95;;;;;;;5.48;67.55;96073.56;5022237;28;20311;-78
2021/12/09 05:18:58;;;;;;;19.17;8.98;;;;;;;5.53;68.31;96078.78;5006075;28;20368;-77
2021/12/09 05:21:28;;;;;;;16.67;8.18;;;;;;;5.51;67.86;96073.84;5022375;28;20642;-77
2021/12/09 05:23:54;;;;;;;21.45;8.43;;;;;;;5.53;67.81;96082.13;4991932;28;20255;-77
2021/12/09 05:26:21;;;;;;;17.52;8.82;;;;;;;5.46;67.93;96073.00;4982396;28;20345;-78
2021/12/09 05:28:52;;;;;;;14.90;6.53;;;;;;;5.49;67.77;96068.16;4989367;28;20230;-77
2021/12/09 05:34:02;;;;;;;16.20;7.28;;;;;;;5.48;68.29;96079.50;5005664;28;20695;-78
2021/12/09 05:36:27;;;;;;;15.90;7.40;;;;;;;5.51;68.46;96078.25;4988754;28;20284;-78
2021/12/09 05:38:53;;;;;;;12.25;5.60;;;;;;;5.41;68.58;96084.03;5003914;28;20571;-78
2021/12/09 05:41:18;;;;;;;13.10;6.95;;;;;;;5.51;68.19;96088.56;5005652;28;20246;-78
2021/12/09 05:43:44;;;;;;;16.10;7.30;;;;;;;5.52;68.02;96092.69;5001658;28;20246;-78
2021/12/09 05:46:09;;;;;;;12.98;7.28;;;;;;;5.54;67.38;96099.19;4991016;28;20296;-78
2021/12/09 05:48:35;;;;;;;15.25;6.97;;;;;;;5.47;68.24;96097.78;5004557;28;20338;-78
2021/12/09 05:51:01;;;;;;;14.77;7.25;;;;;;;5.46;68.54;96106.56;4987685;28;20587;-78
2021/12/09 05:53:26;;;;;;;15.50;6.63;;;;;;;5.37;68.23;96104.38;4992169;28;20109;-77
2021/12/09 05:55:51;;;;;;;12.05;5.57;;;;;;;5.42;68.03;96109.63;4984859;28;20273;-77
2021/12/09 05:58:20;;;;;;;11.77;6.43;;;;;;;5.37;67.19;96109.56;4984463;28;20242;-78
2021/12/09 06:00:46;;;;;;;13.73;6.90;;;;;;;5.47;68.05;96102.97;4988063;28;20612;-77
2021/12/09 06:03:11;;;;;;;14.63;7.10;;;;;;;5.49;67.97;96111.28;4984896;28;20239;-78
2021/12/09 06:05:37;;;;;;;15.77;6.15;;;;;;;5.47;67.88;96115.88;5004178;28;20342;-77
2021/12/09 06:08:04;;;;;;;16.25;7.53;;;;;;;5.48;68.46;96107.13;5003313;28;20205;-77
2021/12/09 06:10:30;;;;;;;15.70;6.38;;;;;;;5.46;67.99;96104.00;5021358;28;20259;-77
2021/12/09 06:12:56;;;;;;;12.23;6.80;;;;;;;5.51;67.97;96114.38;4974278;28;20776;-78
2021/12/09 06:15:21;;;;;;;13.70;7.65;;;;;;;5.46;68.42;96111.75;4992941;28;20295;-77
2021/12/09 06:17:46;;;;;;;17.85;6.63;;;;;;;5.46;67.83;96106.56;4974543;28;20646;-77
2021/12/09 06:20:12;;;;;;;15.95;6.93;;;;;;;5.52;68.56;96110.78;4983575;28;20197;-77
2021/12/09 06:22:37;;;;;;;12.32;5.82;;;;;;;5.56;68.02;96115.22;4984152;28;20202;-77
2021/12/09 06:25:03;;;;;;;15.73;7.00;;;;;;;5.54;68.20;96124.25;5003935;28;20250;-77
2021/12/09 06:27:29;;;;;;;18.90;7.00;;;;;;;5.50;68.72;96123.13;4970923;28;20644;-77
2021/12/09 06:29:55;;;;;;;15.77;7.85;;;;;;;5.54;68.87;96129.41;4985077;28;20189;-78
2021/12/09 06:32:20;;;;;;;19.17;7.03;;;;;;;5.51;68.12;96119.56;4973743;28;20124;-77
2021/12/09 06:34:45;;;;;;;15.50;7.63;;;;;;;5.56;69.04;96127.38;4987365;28;20600;-78
2021/12/09 06:37:11;;;;;;;16.25;7.97;;;;;;;5.52;68.27;96121.09;5002389;28;20696;-77
2021/12/09 06:39:37;;;;;;;19.20;7.68;;;;;;;5.36;68.63;96127.84;5004668;28;20266;-78
2021/12/09 06:42:02;;;;;;;13.05;6.10;;;;;;;5.55;68.42;96121.44;5004741;28;20274;-78
2021/12/09 06:44:28;;;;;;;14.95;6.72;;;;;;;5.60;68.39;96124.09;5001548;28;20180;-78
2021/12/09 06:46:55;;;;;;;11.75;6.10;;;;;;;5.59;68.03;96132.84;4988308;28;20184;-78
2021/12/09 06:49:22;;;;;;;17.02;8.50;;;;;;;5.48;68.47;96143.25;4984051;28;20270;-77
2021/12/09 06:51:48;;;;;;;15.52;7.65;;;;;;;5.38;68.06;96142.09;4983529;28;20255;-78
2021/12/09 06:54:13;;;;;;;14.10;7.30;;;;;;;5.47;68.35;96142.47;4986924;28;20209;-78
2021/12/09 06:56:39;;;;;;;13.65;7.20;;;;;;;5.54;68.05;96143.09;4971006;28;20829;-77
2021/12/09 06:59:05;;;;;;;11.57;6.55;;;;;;;5.53;68.52;96138.94;5003194;28;20262;-77
2021/12/09 07:01:30;;;;;;;15.05;7.13;;;;;;;5.56;67.71;96155.75;4988076;28;20212;-78
2021/12/09 07:03:56;;;;;;;14.73;7.72;;;;;;;5.49;68.57;96162.91;5005784;28;20291;-78
2021/12/09 07:06:26;;;;;;;15.70;7.63;;;;;;;5.49;68.23;96158.50;4987752;28;20639;-78
2021/12/09 07:08:53;;;;;;;16.88;7.05;;;;;;;5.48;68.11;96166.50;4988281;28;20276;-77
2021/12/09 07:11:20;;;;;;;14.60;7.05;;;;;;;5.43;68.21;96170.56;4971391;28;20659;-78
2021/12/09 07:13:47;;;;;;;16.90;7.53;;;;;;;5.47;67.89;96175.25;5003613;28;20170;-78
2021/12/09 07:16:13;;;;;;;16.88;8.07;;;;;;;5.42;67.79;96169.00;4970974;28;20283;-77
2021/12/09 07:18:39;;;;;;;19.30;7.43;;;;;;;5.40;68.12;96173.63;4986943;28;20180;-77
2021/12/09 07:21:04;;;;;;;13.68;7.05;;;;;;;5.38;68.13;96173.06;4987684;28;20174;-77
2021/12/09 07:23:30;;;;;;;19.58;8.35;;;;;;;5.43;68.79;96177.50;5002993;28;20425;-77
2021/12/09 07:25:55;;;;;;;17.63;8.25;;;;;;;5.47;68.21;96175.25;5002981;28;20283;-78
2021/12/09 07:28:21;;;;;;;15.27;8.25;;;;;;;5.54;68.46;96183.63;4985942;28;20184;-77
2021/12/09 07:30:46;;;;;;;18.33;9.07;;;;;;;5.53;68.39;96192.38;5001601;28;20690;-77
2021/12/09 07:33:12;;;;;;;21.73;8.85;;;;;;;5.43;68.51;96187.84;4986532;28;20291;-77
2021/12/09 07:35:37;;;;;;;17.63;8.70;;;;;;;5.53;68.83;96203.47;5003611;28;20162;-77
2021/12/09 07:38:04;;;;;;;19.02;9.18;;;;;;;5.33;67.28;96203.97;4985225;28;20162;-78
2021/12/09 07:40:31;;;;;;;15.82;8.30;;;;;;;5.36;67.79;96213.81;5007131;28;20685;-77
2021/12/09 07:42:56;;;;;;;18.65;8.00;;;;;;;5.31;68.01;96223.28;4990157;28;20354;-77
2021/12/09 07:45:22;;;;;;;16.33;7.60;;;;;;;5.23;68.46;96219.28;4992977;28;20265;-78
2021/12/09 07:47:48;;;;;;;17.33;7.50;;;;;;;5.19;68.04;96231.09;4978817;28;20197;-77
2021/12/09 07:50:16;;;;;;;15.00;7.43;;;;;;;5.07;68.00;96233.72;5007315;28;20197;-78
2021/12/09 07:52:44;;;;;;;15.90;8.80;;;;;;;5.21;68.69;96231.66;4991361;28;20280;-78
2021/12/09 07:55:11;;;;;;;15.23;7.38;;;;;;;5.20;68.62;96248.16;4966894;28;20209;-78
2021/12/09 07:57:38;;;;;;;14.82;6.90;;;;;;;5.24;68.01;96249.22;5002075;28;20741;-78
2021/12/09 08:00:06;;;;;;;19.65;8.13;;;;;;;5.28;68.17;96249.53;5006490;28;20189;-78
2021/12/09 08:02:31;;;;;;;15.52;7.65;;;;;;;5.22;68.06;96241.72;5005470;28;20299;-77
2021/12/09 08:04:57;;;;;;;16.45;8.05;;;;;;;5.34;67.98;96256.38;4988604;28;20379;-77
2021/12/09 08:07:23;;;;;;;15.88;6.32;;;;;;;5.18;67.82;96240.63;4989649;28;20193;-78
2021/12/09 08:09:49;;;;;;;14.13;7.15;;;;;;;5.14;68.29;96256.81;5007496;28;20124;-77
2021/12/09 08:12:14;;;;;;;15.75;8.23;;;;;;;5.18;67.76;96255.34;4973866;28;20269;-78
2021/12/09 08:14:39;;;;;;;33.60;8.60;;;;;;;4.97;68.80;96249.81;4983972;28;20213;-78
2021/12/09 08:17:12;;;;;;;14.82;7.07;;;;;;;5.00;68.58;96251.16;5002293;28;20643;-78
2021/12/09 08:19:37;;;;;;;15.32;6.88;;;;;;;5.18;68.47;96253.53;4955319;28;20339;-77
2021/12/09 08:22:06;;;;;;;17.50;7.95;;;;;;;5.19;67.82;96252.53;4987452;28;20275;-77
2021/12/09 08:24:32;;;;;;;17.05;7.35;;;;;;;5.24;67.41;96256.97;4988602;28;20263;-78
2021/12/09 08:26:57;;;;;;;19.92;7.70;;;;;;;5.17;68.01;96251.19;4990862;28;20620;-78
2021/12/09 08:29:22;;;;;;;19.23;7.18;;;;;;;5.01;68.43;96256.06;4990487;28;20267;-77
2021/12/09 08:31:48;;;;;;;16.35;8.45;;;;;;;5.12;68.64;96261.41;4986646;28;20206;-77
2021/12/09 08:34:13;;;;;;;15.25;7.43;;;;;;;5.07;68.25;96249.19;4997941;28;20189;-77
2021/12/09 08:36:38;;;;;;;15.23;7.22;;;;;;;5.19;68.44;96243.97;5004081;28;20394;-77
2021/12/09 08:39:05;;;;;;;14.80;7.70;;;;;;;5.13;67.69;96250.88;4987518;28;20202;-78
2021/12/09 08:41:31;;;;;;;13.02;6.68;;;;;;;4.97;69.06;96244.66;4999848;28;20201;-78
2021/12/09 08:43:56;;;;;;;28.58;7.90;;;;;;;5.12;68.44;96238.97;4989707;28;20162;-78
2021/12/09 08:46:22;;;;;;;17.60;8.45;;;;;;;5.09;69.29;96241.22;5008116;28;20700;-78
2021/12/09 08:48:47;;;;;;;16.48;8.00;;;;;;;5.14;68.98;96236.97;4989389;28;20267;-78
2021/12/09 08:51:14;;;;;;;16.92;7.78;;;;;;;5.17;68.55;96243.44;4983467;28;20185;-77
2021/12/09 08:53:39;;;;;;;16.20;9.50;;;;;;;5.22;68.30;96244.28;5001606;28;20342;-77
2021/12/09 08:56:05;;;;;;;16.25;8.15;;;;;;;5.27;67.98;96248.78;4988624;28;20491;-77
2021/12/09 08:58:31;;;;;;;16.17;7.72;;;;;;;5.32;68.05;96250.66;5005549;28;20273;-78
2021/12/09 09:00:58;;;;;;;15.27;7.55;;;;;;;5.12;68.38;96243.34;4987818;28;20197;-78
2021/12/09 09:03:24;;;;;;;16.05;7.10;;;;;;;5.15;68.49;96250.63;4987610;28;20200;-77
2021/12/09 09:05:50;;;;;;;14.75;7.55;;;;;;;5.27;68.61;96253.16;5004715;28;20162;-78
2021/12/09 09:08:16;;;;;;;18.48;7.38;;;;;;;5.20;68.10;96254.06;5005108;28;20166;-77
2021/12/09 09:10:42;;;;;;;14.57;6.80;;;;;;;5.28;68.14;96267.63;4988163;28;20639;-78
2021/12/09 09:13:08;;;;;;;15.90;7.13;;;;;;;5.30;68.08;96263.81;5020646;28;20290;-77
2021/12/09 09:15:36;;;;;;;18.60;7.80;;;;;;;5.25;67.41;96267.06;5021063;28;20205;-78
2021/12/09 09:18:02;;;;;;;13.75;7.10;;;;;;;5.26;67.70;96257.53;5004403;28;20212;-77
2021/12/09 09:20:29;;;;;;;18.52;8.20;;;;;;;5.22;68.50;96266.75;5020812;28;20494;-77
2021/12/09 09:22:55;;;;;;;18.02;7.95;;;;;;;5.18;67.77;96256.13;5021181;28;20196;-78
2021/12/09 09:25:28;;;;;;;16.27;8.90;;;;;;;5.17;67.83;96261.50;4966878;28;20613;-77
2021/12/09 09:27:54;;;;;;;17.15;8.23;;;;;;;5.24;68.28;96255.19;4974679;28;20252;-77
2021/12/09 09:30:19;;;;;;;20.42;9.88;;;;;;;5.19;68.19;96272.38;4974821;28;20227;-77
2021/12/09 09:32:49;;;;;;;17.02;8.25;;;;;;;5.13;68.00;96270.72;4992811;28;20655;-78
2021/12/09 09:35:15;;;;;;;17.67;8.98;;;;;;;5.29;68.31;96276.94;5000511;28;20216;-77
2021/12/09 09:37:40;;;;;;;19.70;8.82;;;;;;;5.17;68.22;96284.72;5004075;28;20170;-77
2021/12/09 09:40:10;;;;;;;16.20;7.50;;;;;;;4.97;67.98;96280.78;4971075;28;20313;-78
2021/12/09 09:45:05;;;;;;;15.50;7.90;;;;;;;5.30;68.33;96288.84;5002925;28;20196;-78
2021/12/09 09:47:30;;;;;;;19.98;9.07;;;;;;;5.24;67.91;96285.34;5003764;28;20256;-78
2021/12/09 09:49:57;;;;;;;16.45;8.35;;;;;;;5.25;67.83;96290.28;4984142;28;20670;-78
2021/12/09 09:52:23;;;;;;;19.75;9.52;;;;;;;5.19;68.45;96287.84;4967343;28;20335;-78
2021/12/09 09:54:50;;;;;;;16.73;8.05;;;;;;;5.18;68.92;96291.47;4984463;28;20305;-77
2021/12/09 09:57:16;;;;;;;19.52;8.82;;;;;;;5.33;68.75;96290.94;4984598;28;20271;-78
2021/12/09 09:59:42;;;;;;;17.42;9.30;;;;;;;5.27;68.91;96284.13;4951329;28;20171;-78
2021/12/09 10:02:08;;;;;;;15.93;7.25;;;;;;;5.43;68.83;96286.75;4967620;28;20655;-77
2021/12/09 10:04:44;;;;;;;13.68;7.50;;;;;;;5.31;67.93;96291.16;4975673;28;20217;-77
2021/12/09 10:07:11;;;;;;;18.58;8.15;;;;;;;5.26;68.40;96273.03;4971042;28;20208;-78
2021/12/09 10:09:37;;;;;;;16.92;7.72;;;;;;;5.38;68.47;96271.16;4986418;28;20170;-78
2021/12/09 10:12:03;;;;;;;17.55;7.65;;;;;;;5.47;68.48;96273.34;4986176;28;20204;-78
2021/12/09 10:14:34;;;;;;;17.83;8.52;;;;;;;5.37;68.01;96274.75;4997493;28;20392;-77
2021/12/09 10:17:11;;;;;;;21.67;8.45;;;;;;;5.36;68.62;96273.19;4951051;28;20288;-77
2021/12/09 10:19:39;;;;;;;17.50;7.95;;;;;;;5.32;68.06;96269.50;4951084;28;20245;-78
2021/12/09 10:22:06;;;;;;;18.10;8.52;;;;;;;5.48;67.66;96270.53;4991072;28;20274;-78
2021/12/09 10:24:32;;;;;;;19.05;8.35;;;;;;;5.46;68.38;96271.78;4979898;28;20020;-78
2021/12/09 10:26:57;;;;;;;14.27;7.35;;;;;;;5.61;67.83;96259.13;4992103;28;20039;-77
2021/12/09 10:29:32;;;;;;;17.52;7.47;;;;;;;5.54;68.84;96274.78;4990322;28;20254;-78
2021/12/09 10:32:01;;;;;;;16.48;8.32;;;;;;;5.42;68.91;96259.34;5002629;28;20616;-77
2021/12/09 10:34:35;;;;;;;16.65;7.40;;;;;;;5.50;67.74;96262.56;4985913;28;20166;-78
2021/12/09 10:37:07;;;;;;;15.93;7.00;;;;;;;5.47;68.34;96255.28;4986691;28;20239;-78
2021/12/09 10:39:36;;;;;;;14.60;7.50;;;;;;;5.61;68.40;96253.97;4977461;28;20279;-78
2021/12/09 10:42:06;;;;;;;13.57;7.53;;;;;;;5.44;67.79;96254.72;4981985;28;20201;-78
2021/12/09 10:44:41;;;;;;;15.00;7.53;;;;;;;5.40;67.95;96258.81;4991124;28;20200;-78
2021/12/09 10:47:13;;;;;;;15.90;7.55;;;;;;;5.59;67.74;96261.16;4985126;28;20250;-78
2021/12/09 10:50:10;;;;;;;18.17;8.98;;;;;;;5.39;68.29;96259.81;4997766;28;20696;-78
2021/12/09 10:52:44;;;;;;;17.30;6.97;;;;;;;5.62;67.99;96265.84;4993613;28;20246;-78
2021/12/09 10:55:09;;;;;;;17.60;7.07;;;;;;;5.63;67.83;96257.09;4970619;28;20320;-78
2021/12/09 10:57:34;;;;;;;12.45;6.60;;;;;;;5.74;67.01;96263.97;5004503;28;20728;-78
2021/12/09 11:00:24;;;;;;;11.55;6.68;;;;;;;5.60;68.07;96267.88;5002533;28;20601;-78
2021/12/09 11:02:58;;;;;;;14.75;6.50;;;;;;;5.60;67.60;96273.84;5002314;28;20158;-78
2021/12/09 11:05:24;;;;;;;19.60;8.20;;;;;;;5.46;68.50;96264.06;5002151;28;20752;-78
2021/12/09 11:07:49;;;;;;;12.57;6.18;;;;;;;5.72;67.81;96263.41;4987256;28;20274;-78
2021/12/09 11:10:21;;;;;;;16.73;7.85;;;;;;;5.58;67.77;96267.34;4985816;28;20327;-78
2021/12/09 11:12:58;;;;;;;12.13;5.78;;;;;;;5.59;68.02;96263.75;5001536;28;20544;-78
2021/12/09 11:15:44;;;;;;;17.48;7.85;;;;;;;5.55;68.43;96266.03;5002123;28;20308;-78
2021/12/09 11:18:25;;;;;;;15.05;6.30;;;;;;;5.50;68.02;96253.03;5003878;28;20197;-78
2021/12/09 11:20:51;;;;;;;13.30;6.53;;;;;;;5.66;67.76;96255.84;4983147;28;20292;-78
2021/12/09 11:23:28;;;;;;;13.77;6.47;;;;;;;5.49;67.95;96250.69;4989060;28;20605;-78
2021/12/09 11:25:57;;;;;;;13.38;6.07;;;;;;;5.70;68.02;96252.53;4992788;28;20238;-79
2021/12/09 11:28:22;;;;;;;16.38;7.15;;;;;;;5.70;67.82;96249.97;5003701;28;20204;-78
2021/12/09 11:31:13;;;;;;;13.32;5.97;;;;;;;5.61;67.84;96264.28;4986825;28;20178;-78
2021/12/09 11:33:43;;;;;;;16.13;6.22;;;;;;;5.78;67.80;96244.41;4971300;28;20632;-78
2021/12/09 11:36:15;;;;;;;16.02;6.50;;;;;;;5.81;67.66;96246.53;5003549;28;20583;-78
2021/12/09 11:39:09;;;;;;;16.63;7.40;;;;;;;5.49;68.82;96245.50;4986795;28;20209;-80
2021/12/09 11:41:38;;;;;;;15.85;7.13;;;;;;;5.56;68.67;96234.00;4966999;28;20140;-78